createdAt,value
2022-10-03T00:01:44.472Z,99654.81
2022-10-03T00:04:39.654Z,99650.84
2022-10-03T00:07:26.944Z,99639.97
2022-10-03T00:10:12.396Z,99648.53
2022-10-03T00:13:01.785Z,99655.75
2022-10-03T00:16:07.677Z,99656.38
2022-10-03T00:18:48.199Z,99659.34
2022-10-03T00:21:26.349Z,99652.50
2022-10-03T00:24:30.546Z,99666.44
2022-10-03T00:27:20.982Z,99659.84
2022-10-03T00:30:02.254Z,99654.97
2022-10-03T00:32:54.793Z,99662.31
2022-10-03T00:35:42.632Z,99664.09
2022-10-03T00:38:28.340Z,99662.72
2022-10-03T00:41:25.621Z,99652.59
2022-10-03T00:44:24.094Z,99658.78
2022-10-03T00:47:22.807Z,99665.53
2022-10-03T00:50:03.244Z,99664.16
2022-10-03T00:53:04.135Z,99667.25
2022-10-03T00:56:03.748Z,99667.94
2022-10-03T00:58:49.197Z,99663.09
2022-10-03T01:01:32.866Z,99660.97
2022-10-03T01:04:30.597Z,99657.41
2022-10-03T01:07:38.433Z,99658.91
2022-10-03T01:10:24.118Z,99659.34
2022-10-03T01:12:58.271Z,99654.22
2022-10-03T01:16:05.032Z,99651.13
2022-10-03T01:18:57.156Z,99654.69
2022-10-03T01:21:46.821Z,99661.91
2022-10-03T01:25:11.538Z,99660.94
2022-10-03T01:28:41.847Z,99671.16
2022-10-03T01:31:29.216Z,99681.13
2022-10-03T01:34:37.756Z,99681.34
2022-10-03T01:37:18.298Z,99689.16
2022-10-03T01:40:15.621Z,99691.47
2022-10-03T01:43:04.834Z,99686.31
2022-10-03T01:45:55.224Z,99700.53
2022-10-03T01:48:56.399Z,99692.69
2022-10-03T01:51:46.294Z,99687.87
2022-10-03T01:54:29.685Z,99693.06
2022-10-03T01:57:09.735Z,99688.84
2022-10-03T01:59:43.650Z,99696.63
2022-10-03T02:02:31.642Z,99697.16
2022-10-03T02:05:09.962Z,99699.72
2022-10-03T02:07:48.585Z,99697.31
2022-10-03T02:10:41.415Z,99695.16
2022-10-03T02:13:14.212Z,99706.88
2022-10-03T02:15:42.035Z,99710.31
2022-10-03T02:18:58.080Z,99711.47
2022-10-03T02:21:32.206Z,99718.34
2022-10-03T02:24:23.857Z,99701.38
2022-10-03T02:27:33.342Z,99711.94
2022-10-03T02:30:15.959Z,99715.53
2022-10-03T02:33:05.149Z,99713.44
2022-10-03T02:35:51.585Z,99732.94
2022-10-03T02:39:00.444Z,99716.84
2022-10-03T02:42:04.455Z,99727.53
2022-10-03T02:45:04.240Z,99726.69
2022-10-03T02:48:30.631Z,99734.94
2022-10-03T02:51:56.568Z,99730.59
2022-10-03T02:54:56.691Z,99731.25
2022-10-03T02:57:57.385Z,99731.41
2022-10-03T03:00:59.278Z,99728.72
2022-10-03T03:03:59.201Z,99731.56
2022-10-03T03:06:53.056Z,99722.41
2022-10-03T03:09:46.144Z,99724.84
2022-10-03T03:12:41.282Z,99727.56
2022-10-03T03:15:48.185Z,99732.91
2022-10-03T03:18:40.050Z,99735.72
2022-10-03T03:21:28.099Z,99739.84
2022-10-03T03:25:04.461Z,99734.22
2022-10-03T03:27:48.440Z,99734.22
2022-10-03T03:30:36.443Z,99736.91
2022-10-03T03:33:26.622Z,99735.22
2022-10-03T03:36:24.283Z,99739.78
2022-10-03T03:39:11.770Z,99740.59
2022-10-03T03:42:08.735Z,99736.06
2022-10-03T03:45:06.359Z,99743.63
2022-10-03T03:48:18.914Z,99746.28
2022-10-03T03:51:14.472Z,99749.25
2022-10-03T03:54:19.546Z,99751.53
2022-10-03T03:57:09.652Z,99750.25
2022-10-03T04:00:13.669Z,99746.94
2022-10-03T04:03:51.266Z,99750.63
2022-10-03T04:06:56.646Z,99753.97
2022-10-03T04:09:44.099Z,99754.50
2022-10-03T04:12:22.342Z,99747.97
2022-10-03T04:15:17.832Z,99749.59
2022-10-03T04:18:20.956Z,99752.62
2022-10-03T04:21:19.082Z,99756.16
2022-10-03T04:24:20.224Z,99755.34
2022-10-03T04:27:21.827Z,99757.47
2022-10-03T04:30:02.352Z,99754.28
2022-10-03T04:32:57.542Z,99774.31
2022-10-03T04:35:53.195Z,99771.38
2022-10-03T04:38:49.710Z,99779.91
2022-10-03T04:41:43.514Z,99787.47
2022-10-03T04:44:36.340Z,99791.31
2022-10-03T04:47:23.526Z,99786.09
2022-10-03T04:50:21.230Z,99780.41
2022-10-03T04:53:23.930Z,99793.81
2022-10-03T04:56:16.573Z,99784.56
2022-10-03T04:58:56.221Z,99799.00
2022-10-03T05:01:53.559Z,99798.16
2022-10-03T05:05:24.932Z,99793.78
2022-10-03T05:08:08.453Z,99795.91
2022-10-03T05:10:59.641Z,99805.94
2022-10-03T05:13:54.606Z,99806.59
2022-10-03T05:16:37.887Z,99808.75
2022-10-03T05:19:48.997Z,99811.59
2022-10-03T05:22:46.355Z,99799.44
2022-10-03T05:26:23.067Z,99795.47
2022-10-03T05:29:07.425Z,99796.28
2022-10-03T05:31:47.060Z,99803.81
2022-10-03T05:34:37.815Z,99800.81
2022-10-03T05:38:01.151Z,99791.78
2022-10-03T05:40:38.199Z,99797.22
2022-10-03T05:44:06.250Z,99791.06
2022-10-03T05:46:45.595Z,99782.72
2022-10-03T05:49:58.512Z,99796.47
2022-10-03T05:53:03.412Z,99804.81
2022-10-03T05:56:41.068Z,99815.69
2022-10-03T05:59:33.730Z,99809.13
2022-10-03T06:02:39.181Z,99812.84
2022-10-03T06:05:17.685Z,99813.19
2022-10-03T06:08:06.228Z,99814.34
2022-10-03T06:10:50.421Z,99814.16
2022-10-03T06:13:30.799Z,99822.06
2022-10-03T06:16:25.510Z,99833.25
2022-10-03T06:19:18.549Z,99837.62
2022-10-03T06:22:25.678Z,99839.59
2022-10-03T06:25:27.378Z,99853.53
2022-10-03T06:28:02.798Z,99868.44
2022-10-03T06:31:02.331Z,99863.44
2022-10-03T06:34:13.586Z,99871.84
2022-10-03T06:37:08.628Z,99870.66
2022-10-03T06:39:50.504Z,99871.50
2022-10-03T06:42:33.595Z,99866.78
2022-10-03T06:45:31.094Z,99865.78
2022-10-03T06:48:14.890Z,99871.31
2022-10-03T06:51:48.959Z,99870.47
2022-10-03T06:54:46.807Z,99862.78
2022-10-03T06:57:30.795Z,99853.22
2022-10-03T07:00:27.292Z,99861.09
2022-10-03T07:03:22.041Z,99877.84
2022-10-03T07:06:34.712Z,99885.69
2022-10-03T07:09:34.608Z,99865.41
2022-10-03T07:12:20.254Z,99879.84
2022-10-03T07:15:18.483Z,99863.94
2022-10-03T07:18:01.572Z,99880.84
2022-10-03T07:21:01.475Z,99868.16
2022-10-03T07:24:03.428Z,99876.12
2022-10-03T07:27:15.535Z,99882.53
2022-10-03T07:29:51.332Z,99887.88
2022-10-03T07:33:01.570Z,99874.75
2022-10-03T07:36:05.346Z,99906.59
2022-10-03T07:39:00.401Z,99890.72
2022-10-03T07:42:06.129Z,99894.59
2022-10-03T07:45:04.211Z,99891.38
2022-10-03T07:48:04.556Z,99895.72
2022-10-03T07:50:54.800Z,99923.88
2022-10-03T07:53:26.336Z,99899.28
2022-10-03T07:56:23.407Z,99892.44
2022-10-03T07:59:26.538Z,99901.69
2022-10-03T08:02:26.127Z,99909.75
2022-10-03T08:05:26.628Z,99920.31
2022-10-03T08:08:36.428Z,99909.97
2022-10-03T08:11:27.391Z,99926.72
2022-10-03T08:14:19.513Z,99928.09
2022-10-03T08:17:30.729Z,99897.88
2022-10-03T08:20:06.460Z,99914.94
2022-10-03T08:23:13.548Z,99905.47
2022-10-03T08:26:43.652Z,99901.81
2022-10-03T08:29:37.742Z,99907.69
2022-10-03T08:32:32.882Z,99898.47
2022-10-03T08:35:21.396Z,99891.47
2022-10-03T08:38:17.474Z,99906.50
2022-10-03T08:41:43.435Z,99900.06
2022-10-03T08:44:44.981Z,99901.47
2022-10-03T08:47:37.585Z,99907.16
2022-10-03T08:50:28.841Z,99897.66
2022-10-03T08:53:39.558Z,99893.00
2022-10-03T08:56:13.621Z,99909.75
2022-10-03T08:59:23.732Z,99898.50
2022-10-03T09:02:11.528Z,99902.78
2022-10-03T09:05:16.541Z,99903.97
2022-10-03T09:08:20.000Z,99903.34
2022-10-03T09:11:22.784Z,99904.22
2022-10-03T09:14:03.403Z,99911.09
2022-10-03T09:17:14.373Z,99908.38
2022-10-03T09:20:20.400Z,99915.78
2022-10-03T09:23:06.920Z,99909.25
2022-10-03T09:25:35.132Z,99916.03
2022-10-03T09:28:28.460Z,99923.31
2022-10-03T09:31:29.304Z,99915.53
2022-10-03T09:34:28.444Z,99915.72
2022-10-03T09:37:20.392Z,99921.94
2022-10-03T09:40:01.934Z,99930.19
2022-10-03T09:42:58.046Z,99933.56
2022-10-03T09:45:59.115Z,99935.56
2022-10-03T09:49:18.615Z,99931.66
2022-10-03T09:52:43.074Z,99922.69
2022-10-03T09:56:05.841Z,99931.78
2022-10-03T09:59:07.166Z,99938.72
2022-10-03T10:01:54.593Z,99941.81
2022-10-03T10:04:56.410Z,99940.31
2022-10-03T10:07:32.369Z,99942.53
2022-10-03T10:10:31.466Z,99920.50
2022-10-03T10:14:10.226Z,99931.06
2022-10-03T10:17:18.691Z,99930.25
2022-10-03T10:20:29.445Z,99930.63
2022-10-03T10:23:38.598Z,99933.37
2022-10-03T10:26:29.538Z,99936.16
2022-10-03T10:29:31.394Z,99940.53
2022-10-03T10:32:25.092Z,99936.19
2022-10-03T10:35:26.393Z,99936.06
2022-10-03T10:38:44.347Z,99927.19
2022-10-03T10:41:44.553Z,99929.34
2022-10-03T10:44:47.785Z,99929.19
2022-10-03T10:47:31.584Z,99936.16
2022-10-03T10:50:37.449Z,99932.69
2022-10-03T10:53:56.291Z,99924.72
2022-10-03T10:56:50.829Z,99928.69
2022-10-03T10:59:56.491Z,99933.34
2022-10-03T11:03:07.014Z,99924.75
2022-10-03T11:06:09.187Z,99925.87
2022-10-03T11:09:02.768Z,99937.16
2022-10-03T11:11:55.339Z,99925.13
2022-10-03T11:15:02.498Z,99923.84
2022-10-03T11:17:41.197Z,99931.94
2022-10-03T11:20:47.898Z,99925.00
2022-10-03T11:23:42.438Z,99915.81
2022-10-03T11:26:33.033Z,99919.63
2022-10-03T11:30:02.202Z,99909.37
2022-10-03T11:33:07.753Z,99937.34
2022-10-03T11:36:02.334Z,99926.34
2022-10-03T11:38:37.010Z,99916.66
2022-10-03T11:41:28.625Z,99904.63
2022-10-03T11:44:05.372Z,99915.97
2022-10-03T11:46:58.210Z,99919.28
2022-10-03T11:49:46.840Z,99917.69
2022-10-03T11:52:36.701Z,99912.97
2022-10-03T11:55:43.138Z,99914.00
2022-10-03T11:58:34.547Z,99917.66
2022-10-03T12:01:40.214Z,99916.38
2022-10-03T12:04:25.060Z,99921.78
2022-10-03T12:07:19.198Z,99918.19
2022-10-03T12:09:59.787Z,99917.59
2022-10-03T12:12:52.326Z,99905.25
2022-10-03T12:15:48.162Z,99903.94
2022-10-03T12:18:34.390Z,99911.00
2022-10-03T12:21:12.028Z,99904.44
2022-10-03T12:24:19.469Z,99915.59
2022-10-03T12:27:03.905Z,99898.19
2022-10-03T12:29:40.604Z,99911.31
2022-10-03T12:32:37.282Z,99908.06
2022-10-03T12:35:08.210Z,99903.03
2022-10-03T12:38:03.729Z,99902.31
2022-10-03T12:41:00.100Z,99902.06
2022-10-03T12:43:45.823Z,99894.63
2022-10-03T12:46:28.757Z,99899.75
2022-10-03T12:49:25.253Z,99906.94
2022-10-03T12:52:00.201Z,99888.34
2022-10-03T12:54:55.257Z,99891.56
2022-10-03T12:57:46.172Z,99885.50
2022-10-03T13:00:36.574Z,99885.75
2022-10-03T13:03:55.937Z,99913.41
2022-10-03T13:06:44.460Z,99932.50
2022-10-03T13:09:49.883Z,99942.00
2022-10-03T13:12:51.510Z,99943.13
2022-10-03T13:15:38.597Z,99938.69
2022-10-03T13:18:33.335Z,99926.91
2022-10-03T13:21:40.646Z,99912.84
2022-10-03T13:24:22.284Z,99910.41
2022-10-03T13:27:29.133Z,99908.47
2022-10-03T13:30:24.168Z,99905.44
2022-10-03T13:33:21.678Z,99904.63
2022-10-03T13:36:02.949Z,99894.34
2022-10-03T13:38:51.564Z,99912.19
2022-10-03T13:41:48.142Z,99916.47
2022-10-03T13:44:24.596Z,99912.88
2022-10-03T13:47:40.987Z,99912.72
2022-10-03T13:50:27.611Z,99912.16
2022-10-03T13:53:33.257Z,99903.84
2022-10-03T13:56:36.903Z,99911.84
2022-10-03T13:59:28.348Z,99898.31
2022-10-03T14:02:14.991Z,99901.06
2022-10-03T14:05:13.464Z,99898.41
2022-10-03T14:08:18.504Z,99905.06
2022-10-03T14:11:00.113Z,99903.13
2022-10-03T14:14:07.440Z,99899.44
2022-10-03T14:17:35.897Z,99901.37
2022-10-03T14:20:48.030Z,99906.19
2022-10-03T14:23:49.797Z,99903.78
2022-10-03T14:26:30.665Z,99922.53
2022-10-03T14:29:15.992Z,99915.56
2022-10-03T14:31:54.889Z,99916.13
2022-10-03T14:34:47.719Z,99904.81
2022-10-03T14:37:27.357Z,99919.34
2022-10-03T14:47:11.111Z,99933.25
2022-10-03T14:49:58.895Z,99931.87
2022-10-03T14:52:50.037Z,99922.81
2022-10-03T14:55:57.638Z,99929.28
2022-10-03T14:58:51.605Z,99925.56
2022-10-03T15:02:02.161Z,99920.75
2022-10-03T15:04:47.392Z,99920.38
2022-10-03T15:07:16.863Z,99924.72
2022-10-03T15:09:56.552Z,99924.94
2022-10-03T15:13:03.599Z,99919.13
2022-10-03T15:15:58.323Z,99927.16
2022-10-03T15:18:46.503Z,99923.91
2022-10-03T15:21:26.369Z,99919.66
2022-10-03T15:24:24.927Z,99914.28
2022-10-03T15:27:06.540Z,99909.00
2022-10-03T15:29:46.150Z,99918.88
2022-10-03T15:32:29.838Z,99910.28
2022-10-03T15:35:21.123Z,99910.37
2022-10-03T15:38:14.884Z,99915.69
2022-10-03T15:41:02.709Z,99907.91
2022-10-03T15:43:57.694Z,99904.19
2022-10-03T15:47:06.062Z,99908.44
2022-10-03T15:50:03.293Z,99903.25
2022-10-03T15:53:42.432Z,99896.56
2022-10-03T15:56:50.883Z,99896.28
2022-10-03T15:59:28.352Z,99898.03
2022-10-03T16:02:10.162Z,99915.75
2022-10-03T16:04:48.745Z,99915.72
2022-10-03T16:08:03.390Z,99911.94
2022-10-03T16:10:46.259Z,99927.44
2022-10-03T16:13:26.545Z,99918.75
2022-10-03T16:19:28.644Z,99939.44
2022-10-03T16:22:14.000Z,99935.19
2022-10-03T16:25:14.119Z,99923.91
2022-10-03T16:27:55.739Z,99932.66
2022-10-03T16:30:38.267Z,99939.53
2022-10-03T16:33:45.410Z,99934.72
2022-10-03T16:36:25.832Z,99930.63
2022-10-03T16:39:05.762Z,99950.88
2022-10-03T16:41:50.297Z,99937.25
2022-10-03T16:44:34.791Z,99939.75
2022-10-03T16:47:08.042Z,99939.09
2022-10-03T16:50:15.844Z,99936.34
2022-10-03T16:52:48.864Z,99946.94
2022-10-03T16:55:46.051Z,99945.50
2022-10-03T16:58:32.975Z,99949.47
2022-10-03T17:01:55.125Z,99947.00
2022-10-03T17:04:59.485Z,99951.75
2022-10-03T17:07:51.590Z,99953.81
2022-10-03T17:10:38.937Z,99946.69
2022-10-03T17:13:19.783Z,99945.44
2022-10-03T17:16:02.833Z,99943.78
2022-10-03T17:18:47.839Z,99954.69
2022-10-03T17:21:22.937Z,99949.63
2022-10-03T17:24:07.819Z,99958.78
2022-10-03T17:26:53.757Z,99966.12
2022-10-03T17:29:42.966Z,99961.19
2022-10-03T17:32:24.053Z,99959.50
2022-10-03T17:35:22.343Z,99957.25
2022-10-03T17:41:55.080Z,99955.16
2022-10-03T17:44:54.416Z,99966.91
2022-10-03T17:47:56.278Z,99970.59
2022-10-03T17:50:51.050Z,99965.66
2022-10-03T17:53:42.308Z,99958.81
2022-10-03T17:56:22.101Z,99960.91
2022-10-03T17:59:22.109Z,99968.34
2022-10-03T18:02:02.470Z,99970.75
2022-10-03T18:04:59.277Z,99979.63
2022-10-03T18:07:29.326Z,99975.72
2022-10-03T18:10:00.846Z,99980.22
2022-10-03T18:12:43.424Z,99979.31
2022-10-03T18:15:51.368Z,99975.78
2022-10-03T18:18:44.633Z,99976.28
2022-10-03T18:21:41.845Z,99980.47
2022-10-03T18:24:38.381Z,99973.28
2022-10-03T18:27:46.775Z,99970.09
2022-10-03T18:30:50.331Z,99971.94
2022-10-03T18:33:42.728Z,99970.94
2022-10-03T18:36:21.551Z,99986.34
2022-10-03T18:39:08.761Z,99985.84
2022-10-03T18:41:46.033Z,99976.31
2022-10-03T18:44:42.910Z,99988.19
2022-10-03T18:47:20.009Z,99988.03
2022-10-03T18:50:27.332Z,99987.63
2022-10-03T18:53:09.687Z,100001.09
2022-10-03T18:56:03.327Z,99997.41
2022-10-03T18:59:12.953Z,99991.56
2022-10-03T19:01:57.223Z,99996.09
2022-10-03T19:04:53.852Z,100002.78
2022-10-03T19:07:35.702Z,100005.47
2022-10-03T19:10:52.878Z,100014.66
2022-10-03T19:13:41.672Z,100003.63
2022-10-03T19:16:19.757Z,100004.44
2022-10-03T19:19:17.813Z,100005.44
2022-10-03T19:21:53.682Z,100001.78
2022-10-03T19:24:56.674Z,100007.78
2022-10-03T19:27:42.232Z,99999.34
2022-10-03T19:30:20.402Z,100007.28
2022-10-03T19:33:23.316Z,100000.44
2022-10-03T19:35:57.145Z,99999.44
2022-10-03T19:38:32.774Z,100004.13
2022-10-03T19:41:23.100Z,100009.50
2022-10-03T19:43:55.091Z,100006.06
2022-10-03T19:47:09.972Z,100012.19
2022-10-03T19:50:07.952Z,100009.50
2022-10-03T19:52:42.154Z,100006.94
2022-10-03T19:55:27.876Z,100020.53
2022-10-03T19:58:00.484Z,100018.00
2022-10-03T20:00:37.708Z,100019.41
2022-10-03T20:03:06.854Z,100006.75
2022-10-03T20:06:01.750Z,100007.44
2022-10-03T20:09:01.549Z,100018.81
2022-10-03T20:11:41.634Z,100015.50
2022-10-03T20:14:29.635Z,100017.19
2022-10-03T20:17:15.998Z,100015.50
2022-10-03T20:19:56.155Z,100025.69
2022-10-03T20:22:31.595Z,100026.22
2022-10-03T20:25:01.241Z,100027.91
2022-10-03T20:27:36.943Z,100035.12
2022-10-03T20:30:26.747Z,100039.12
2022-10-03T20:32:56.205Z,100038.97
2022-10-03T20:35:29.063Z,100038.72
2022-10-03T20:38:05.329Z,100040.47
2022-10-03T20:40:38.729Z,100043.66
2022-10-03T20:43:27.960Z,100045.50
2022-10-03T20:46:10.739Z,100043.16
2022-10-03T20:48:46.976Z,100052.41
2022-10-03T20:51:23.221Z,100039.19
2022-10-03T20:53:54.924Z,100048.31
2022-10-03T20:56:32.468Z,100046.12
2022-10-03T20:59:09.356Z,100044.25
2022-10-03T21:01:38.877Z,100051.31
2022-10-03T21:04:21.140Z,100056.44
2022-10-03T21:06:57.986Z,100051.19
2022-10-03T21:09:48.080Z,100054.13
2022-10-03T21:12:23.870Z,100056.69
2022-10-03T21:15:00.653Z,100061.59
2022-10-03T21:17:30.321Z,100062.38
2022-10-03T21:20:01.741Z,100066.75
2022-10-03T21:22:29.878Z,100065.78
2022-10-03T21:25:00.252Z,100062.06
2022-10-03T21:27:28.100Z,100071.16
2022-10-03T21:29:57.636Z,100065.62
2022-10-03T21:32:56.533Z,100065.44
2022-10-03T21:35:44.727Z,100076.44
2022-10-03T21:38:27.141Z,100070.06
2022-10-03T21:41:15.049Z,100069.41
2022-10-03T21:44:01.663Z,100071.09
2022-10-03T21:47:04.473Z,100069.72
2022-10-03T21:50:01.741Z,100068.88
2022-10-03T21:52:55.734Z,100068.13
2022-10-03T21:56:09.391Z,100062.31
2022-10-03T21:59:11.718Z,100062.62
2022-10-03T22:01:59.825Z,100062.59
2022-10-03T22:04:51.931Z,100056.63
2022-10-03T22:07:38.905Z,100070.47
2022-10-03T22:10:21.287Z,100069.41
2022-10-03T22:12:56.831Z,100070.41
2022-10-03T22:15:27.955Z,100080.25
2022-10-03T22:18:00.725Z,100073.88
2022-10-03T22:20:33.618Z,100079.31
2022-10-03T22:23:24.161Z,100088.50
2022-10-03T22:25:55.728Z,100085.34
2022-10-03T22:28:40.466Z,100082.19
2022-10-03T22:31:28.960Z,100090.38
2022-10-03T22:34:08.866Z,100081.88
2022-10-03T22:36:37.480Z,100080.69
2022-10-03T22:39:10.713Z,100077.19
2022-10-03T22:41:39.964Z,100083.03
2022-10-03T22:44:10.619Z,100071.72
2022-10-03T22:46:41.651Z,100071.44
2022-10-03T22:49:18.767Z,100077.34
2022-10-03T22:51:47.817Z,100079.38
2022-10-03T22:54:17.668Z,100064.44
2022-10-03T22:56:48.063Z,100067.97
2022-10-03T22:59:23.772Z,100066.75
2022-10-03T23:01:52.918Z,100061.84
2022-10-03T23:04:42.600Z,100058.63
2022-10-03T23:07:30.330Z,100056.81
2022-10-03T23:10:09.734Z,100052.50
2022-10-03T23:12:42.360Z,100049.59
2022-10-03T23:15:20.940Z,100054.06
2022-10-03T23:17:48.785Z,100051.34
2022-10-03T23:20:46.560Z,100052.25
2022-10-03T23:23:26.280Z,100053.25
2022-10-03T23:26:25.413Z,100056.97
2022-10-03T23:29:07.490Z,100052.94
2022-10-03T23:32:00.288Z,100055.19
2022-10-03T23:34:36.796Z,100051.38
2022-10-03T23:37:14.119Z,100057.78
2022-10-03T23:40:07.751Z,100052.59
2022-10-03T23:42:43.741Z,100054.44
2022-10-03T23:45:29.641Z,100052.16
2022-10-03T23:48:10.788Z,100053.22
2022-10-03T23:50:54.325Z,100056.03
2022-10-03T23:53:32.669Z,100048.06
2022-10-03T23:56:02.685Z,100046.87
2022-10-03T23:58:36.734Z,100046.94
